createdAt,value
2023-05-19T09:32:00.000Z,1.400000
2023-05-19T09:32:20.000Z,2.000000
2023-05-19T09:32:41.000Z,1.900000
2023-05-19T09:33:00.000Z,1.900000
2023-05-19T09:40:42.000Z,1.700000
2023-05-19T09:41:02.000Z,2.800000
2023-05-19T09:41:22.000Z,2.400000
2023-05-19T09:41:32.000Z,1.900000
2023-05-19T09:50:21.000Z,1.600000
2023-05-19T09:50:41.000Z,1.500000
2023-05-19T09:51:02.000Z,1.400000
2023-05-19T09:51:22.000Z,1.500000
2023-05-19T09:51:42.000Z,1.500000
2023-05-19T09:52:02.000Z,1.800000
2023-05-19T09:52:23.000Z,1.600000
2023-05-19T09:52:43.000Z,2.300000
2023-05-19T09:53:03.000Z,2.200000
2023-05-19T09:53:23.000Z,1.700000
2023-05-19T09:53:44.000Z,1.500000
2023-05-19T09:54:04.000Z,1.600000
2023-05-19T09:54:24.000Z,1.500000
2023-05-19T09:54:45.000Z,1.500000
2023-05-19T09:55:05.000Z,1.300000
2023-05-19T09:55:25.000Z,1.400000
2023-05-19T09:55:45.000Z,1.400000
2023-05-19T09:56:06.000Z,1.500000
2023-05-19T09:56:26.000Z,1.400000
2023-05-19T09:56:46.000Z,1.400000
2023-05-19T09:57:06.000Z,1.600000
2023-05-19T09:57:27.000Z,1.600000
2023-05-19T09:57:47.000Z,1.400000
2023-05-19T09:58:07.000Z,1.500000
2023-05-19T09:58:28.000Z,1.400000
2023-05-19T09:58:48.000Z,1.400000
2023-05-19T09:59:08.000Z,1.400000
2023-05-19T09:59:28.000Z,1.400000
2023-05-19T09:59:49.000Z,1.500000
2023-05-19T10:00:09.000Z,1.500000
2023-05-19T10:00:29.000Z,1.700000
2023-05-19T10:00:49.000Z,1.500000
2023-05-19T10:01:10.000Z,1.300000
2023-05-19T10:01:30.000Z,1.500000
2023-05-19T10:01:50.000Z,1.300000
2023-05-19T10:02:11.000Z,1.200000
2023-05-19T10:02:31.000Z,1.400000
2023-05-19T10:02:51.000Z,1.500000
2023-05-19T10:03:12.000Z,1.400000
2023-05-19T10:03:32.000Z,1.800000
2023-05-19T10:03:52.000Z,1.600000
2023-05-19T10:04:12.000Z,1.400000
2023-05-19T10:04:33.000Z,1.500000
2023-05-19T10:04:53.000Z,1.400000
2023-05-19T10:05:13.000Z,1.500000
2023-05-19T10:05:34.000Z,1.500000
2023-05-19T10:05:54.000Z,1.600000
2023-05-19T10:06:14.000Z,1.500000
2023-05-19T10:06:34.000Z,1.400000
2023-05-19T10:06:55.000Z,1.500000
2023-05-19T10:07:15.000Z,1.500000
2023-05-19T10:07:35.000Z,1.500000
2023-05-19T10:07:56.000Z,1.500000
2023-05-19T10:08:16.000Z,1.400000
2023-05-19T10:08:36.000Z,1.400000
2023-05-19T10:08:56.000Z,1.600000
2023-05-19T10:09:17.000Z,1.600000
2023-05-19T10:09:37.000Z,1.600000
2023-05-19T10:09:57.000Z,1.300000
2023-05-19T10:10:17.000Z,1.700000
2023-05-19T10:10:38.000Z,1.700000
2023-05-19T10:10:58.000Z,1.900000
2023-05-19T10:11:18.000Z,2.300000
2023-05-19T10:11:38.000Z,3.000000
2023-05-19T10:11:59.000Z,2.100000
2023-05-19T10:12:19.000Z,2.100000
2023-05-19T10:12:39.000Z,1.600000
2023-05-19T10:13:00.000Z,1.800000
2023-05-19T10:13:20.000Z,1.900000
2023-05-19T10:13:40.000Z,1.500000
2023-05-19T10:13:40.000Z,1.500000
2023-05-19T10:21:22.000Z,1.900000
2023-05-19T10:21:42.000Z,1.500000
2023-05-19T10:22:02.000Z,1.500000
2023-05-19T10:22:23.000Z,2.100000
2023-05-19T10:22:43.000Z,2.100000
2023-05-19T10:23:03.000Z,1.600000
2023-05-19T10:23:24.000Z,1.700000
2023-05-19T10:23:44.000Z,1.500000
2023-05-19T10:24:04.000Z,1.600000
2023-05-19T10:24:24.000Z,2.300000
2023-05-19T10:24:45.000Z,1.900000
2023-05-19T10:25:05.000Z,1.700000
2023-05-19T10:25:25.000Z,1.500000
2023-05-19T10:25:33.000Z,1.600000
2023-05-19T10:34:19.000Z,3.500000
2023-05-19T10:34:39.000Z,2.400000
2023-05-19T10:35:00.000Z,5.600000
2023-05-19T10:35:09.000Z,6.800000
2023-05-19T10:36:03.000Z,4.300000
2023-05-19T10:36:24.000Z,2.200000
2023-05-19T10:36:44.000Z,20.299999
2023-05-19T10:37:04.000Z,21.500000
2023-05-19T10:37:25.000Z,7.200000
2023-05-19T10:37:45.000Z,2.000000
2023-05-19T10:38:05.000Z,1.600000
2023-05-19T10:38:25.000Z,1.800000
2023-05-19T10:38:46.000Z,2.000000
2023-05-19T10:39:06.000Z,1.800000
2023-05-19T10:39:26.000Z,1.800000
2023-05-19T10:39:47.000Z,1.800000
2023-05-19T10:40:07.000Z,1.700000
2023-05-19T10:40:27.000Z,1.800000
2023-05-19T10:40:47.000Z,1.800000
2023-05-19T10:41:08.000Z,1.900000
2023-05-19T10:41:28.000Z,1.700000
2023-05-19T10:41:48.000Z,1.600000
2023-05-19T10:42:08.000Z,1.800000
2023-05-19T10:42:29.000Z,2.500000
2023-05-19T10:42:49.000Z,3.600000
2023-05-19T10:43:09.000Z,2.400000
2023-05-19T10:43:30.000Z,2.000000
2023-05-19T10:43:50.000Z,2.000000
2023-05-19T10:44:10.000Z,2.000000
2023-05-19T10:44:30.000Z,1.900000
2023-05-19T10:44:51.000Z,1.700000
2023-05-19T10:45:11.000Z,2.200000
2023-05-19T10:45:31.000Z,2.500000
2023-05-19T10:45:52.000Z,2.100000
2023-05-19T10:46:12.000Z,2.100000
2023-05-19T10:46:32.000Z,1.700000
2023-05-19T10:46:52.000Z,1.800000
2023-05-19T10:47:13.000Z,1.500000
2023-05-19T10:47:33.000Z,1.700000
2023-05-19T10:47:53.000Z,1.700000
2023-05-19T10:48:13.000Z,1.700000
2023-05-19T10:48:34.000Z,1.700000
2023-05-19T10:48:54.000Z,1.500000
2023-05-19T10:49:14.000Z,1.600000
2023-05-19T10:49:34.000Z,1.800000
2023-05-19T10:49:55.000Z,1.700000
2023-05-19T10:50:15.000Z,1.600000
2023-05-19T10:50:35.000Z,1.800000
2023-05-19T10:50:56.000Z,1.700000
2023-05-19T10:51:16.000Z,1.500000
2023-05-19T10:51:36.000Z,1.600000
2023-05-19T10:51:57.000Z,1.700000
2023-05-19T10:52:17.000Z,1.800000
2023-05-19T10:52:37.000Z,1.700000
2023-05-19T10:52:57.000Z,1.800000
2023-05-19T10:53:18.000Z,1.500000
2023-05-19T10:53:38.000Z,1.500000
2023-05-19T10:53:58.000Z,1.400000
2023-05-19T10:54:18.000Z,1.500000
2023-05-19T10:54:39.000Z,1.500000
2023-05-19T10:54:59.000Z,1.500000
2023-05-19T10:55:19.000Z,1.500000
2023-05-19T10:55:40.000Z,1.600000
2023-05-19T10:56:00.000Z,1.600000
2023-05-19T10:56:20.000Z,1.600000
2023-05-19T10:56:40.000Z,2.600000
2023-05-19T10:57:01.000Z,1.900000
2023-05-19T10:57:21.000Z,1.500000
2023-05-19T10:57:41.000Z,1.800000
2023-05-19T10:58:02.000Z,1.500000
2023-05-19T10:58:22.000Z,1.500000
2023-05-19T10:58:42.000Z,1.600000
2023-05-19T10:59:02.000Z,1.300000
2023-05-19T10:59:23.000Z,1.300000
2023-05-19T10:59:43.000Z,1.300000
2023-05-19T11:00:03.000Z,1.400000
2023-05-19T11:00:24.000Z,1.500000
2023-05-19T11:00:24.000Z,1.200000
2023-05-19T11:02:21.000Z,1.300000
2023-05-19T11:02:42.000Z,1.500000
2023-05-19T11:03:02.000Z,1.300000
